Time;durP1;ratioP1;P1;durP2;ratioP2;P2;SDS_P1;SDS_P2;PMS_P1;PMS_P2;Temp;Humidity;BMP_temperature;BMP_pressure;BME280_temperature;BME280_humidity;BME280_pressure;Samples;Min_cycle;Max_cycle;Signal;HPM_P1;HPM_P2
2023/03/02 05:43:22;;;;;;;13.32;7.45;;;;;;;;;;5273147;23;20064;-69
2023/03/02 05:45:48;;;;;;;13.98;7.63;;;;;;;;;;4895408;29;20041;-69
2023/03/02 05:48:14;;;;;;;12.57;7.32;;;;;;;;;;4895540;29;20073;-68
2023/03/02 05:50:40;;;;;;;11.82;6.80;;;;;;;;;;4895596;29;20043;-59
2023/03/02 05:53:08;;;;;;;13.70;7.45;;;;;;;;;;4895474;29;20497;-58
2023/03/02 05:55:35;;;;;;;12.23;6.90;;;;;;;;;;4895840;29;20111;-65
2023/03/02 05:58:02;;;;;;;14.10;7.30;;;;;;;;;;4877985;29;20083;-62
2023/03/02 06:00:28;;;;;;;10.95;6.72;;;;;;;;;;4895379;29;20032;-59
2023/03/02 06:02:55;;;;;;;12.25;6.53;;;;;;;;;;4895662;29;20128;-64
2023/03/02 06:05:21;;;;;;;13.15;6.65;;;;;;;;;;4895357;29;20021;-59
2023/03/02 06:07:47;;;;;;;13.02;7.03;;;;;;;;;;4895544;29;20036;-62
2023/03/02 06:10:14;;;;;;;11.85;6.63;;;;;;;;;;4895342;29;20048;-59
2023/03/02 06:12:40;;;;;;;11.43;6.68;;;;;;;;;;4894895;29;20029;-66
2023/03/02 06:15:06;;;;;;;11.25;6.38;;;;;;;;;;4895379;29;20040;-65
2023/03/02 06:17:33;;;;;;;11.00;6.28;;;;;;;;;;4894802;29;20051;-69
2023/03/02 06:19:59;;;;;;;11.82;6.80;;;;;;;;;;4877415;29;20095;-60
2023/03/02 06:22:25;;;;;;;13.43;7.97;;;;;;;;;;4893931;29;20829;-59
2023/03/02 06:24:54;;;;;;;14.57;7.93;;;;;;;;;;4894220;29;20048;-62
2023/03/02 06:27:20;;;;;;;13.95;8.00;;;;;;;;;;4894698;29;20461;-58
2023/03/02 06:29:46;;;;;;;14.70;7.80;;;;;;;;;;4895123;29;20069;-57
2023/03/02 06:32:12;;;;;;;15.63;8.77;;;;;;;;;;4877012;29;20040;-70
2023/03/02 06:34:38;;;;;;;17.17;8.77;;;;;;;;;;4895091;29;20096;-71
2023/03/02 06:37:04;;;;;;;15.18;8.07;;;;;;;;;;4894653;29;20037;-58
2023/03/02 06:39:30;;;;;;;16.80;7.85;;;;;;;;;;4895073;29;20036;-61
2023/03/02 06:41:57;;;;;;;13.82;6.85;;;;;;;;;;4895162;29;20033;-61
2023/03/02 06:44:23;;;;;;;13.45;7.40;;;;;;;;;;4906009;29;20145;-59
2023/03/02 06:46:49;;;;;;;12.55;6.75;;;;;;;;;;4904773;29;20068;-59
2023/03/02 06:49:15;;;;;;;13.40;7.20;;;;;;;;;;4893377;29;20172;-61
2023/03/02 06:51:41;;;;;;;13.88;6.97;;;;;;;;;;4895019;29;20115;-58
2023/03/02 06:54:07;;;;;;;12.13;6.63;;;;;;;;;;4897132;29;20485;-59
2023/03/02 06:56:34;;;;;;;13.38;6.97;;;;;;;;;;4898464;29;20063;-63
2023/03/02 06:59:00;;;;;;;13.88;7.50;;;;;;;;;;4898043;29;20038;-72
2023/03/02 07:01:27;;;;;;;15.20;7.85;;;;;;;;;;4898171;29;20565;-57
2023/03/02 07:03:53;;;;;;;15.30;7.80;;;;;;;;;;4880953;29;20152;-72
2023/03/02 07:06:19;;;;;;;13.10;7.80;;;;;;;;;;4898479;29;20056;-69
2023/03/02 07:08:45;;;;;;;12.70;7.32;;;;;;;;;;4890192;29;20219;-73
2023/03/02 07:11:12;;;;;;;13.10;6.90;;;;;;;;;;4898102;29;20041;-60
2023/03/02 07:13:39;;;;;;;14.48;7.07;;;;;;;;;;4897327;29;20035;-58
2023/03/02 07:16:12;;;;;;;13.05;7.57;;;;;;;;;;4896626;29;20188;-72
2023/03/02 07:18:39;;;;;;;16.52;8.30;;;;;;;;;;4895259;29;20361;-69
2023/03/02 07:21:05;;;;;;;16.88;8.73;;;;;;;;;;4901028;29;20032;-59
2023/03/02 07:23:31;;;;;;;15.80;8.60;;;;;;;;;;4897631;29;20083;-73
2023/03/02 07:25:57;;;;;;;17.27;9.13;;;;;;;;;;4897990;29;20032;-61
2023/03/02 07:28:24;;;;;;;13.80;7.80;;;;;;;;;;4897892;29;20397;-58
2023/03/02 07:30:51;;;;;;;15.52;7.68;;;;;;;;;;4898814;29;20477;-67
2023/03/02 07:33:17;;;;;;;13.73;7.68;;;;;;;;;;4895824;29;20543;-69
2023/03/02 07:35:43;;;;;;;13.18;6.47;;;;;;;;;;4896351;29;20429;-71
2023/03/02 07:38:09;;;;;;;11.45;6.97;;;;;;;;;;4896387;29;20029;-68
2023/03/02 07:40:36;;;;;;;11.93;6.35;;;;;;;;;;4897970;29;20081;-74
2023/03/02 07:43:02;;;;;;;10.90;6.10;;;;;;;;;;4897369;29;20037;-74
2023/03/02 07:45:28;;;;;;;12.75;5.88;;;;;;;;;;4897847;29;20074;-74
2023/03/02 07:47:54;;;;;;;10.13;6.20;;;;;;;;;;4897709;29;20544;-60
2023/03/02 07:50:20;;;;;;;12.63;7.22;;;;;;;;;;4902284;29;20501;-74
2023/03/02 07:52:46;;;;;;;12.32;7.03;;;;;;;;;;4902154;29;20040;-61
2023/03/02 07:55:12;;;;;;;14.40;7.70;;;;;;;;;;4900092;29;20127;-64
2023/03/02 07:57:38;;;;;;;11.63;5.90;;;;;;;;;;4896152;29;20824;-68
2023/03/02 08:00:05;;;;;;;10.60;5.90;;;;;;;;;;4896823;29;20076;-58
2023/03/02 08:02:32;;;;;;;10.00;5.85;;;;;;;;;;4878826;29;20092;-65
2023/03/02 08:04:58;;;;;;;13.43;6.03;;;;;;;;;;4878020;29;20039;-58
2023/03/02 08:07:24;;;;;;;12.00;5.80;;;;;;;;;;4896670;29;20021;-63
2023/03/02 08:09:50;;;;;;;11.57;6.07;;;;;;;;;;4896518;29;20040;-65
2023/03/02 08:12:16;;;;;;;11.32;5.68;;;;;;;;;;4895910;29;20107;-68
2023/03/02 08:14:42;;;;;;;12.40;6.18;;;;;;;;;;4895452;29;20440;-71
2023/03/02 08:17:08;;;;;;;12.93;6.53;;;;;;;;;;4895409;29;20032;-59
2023/03/02 08:19:34;;;;;;;15.45;7.32;;;;;;;;;;4896803;29;20401;-69
2023/03/02 08:22:01;;;;;;;14.80;7.05;;;;;;;;;;4896100;29;20021;-68
2023/03/02 08:24:27;;;;;;;12.90;6.85;;;;;;;;;;4896583;29;20048;-59
2023/03/02 08:26:54;;;;;;;12.50;6.53;;;;;;;;;;4895346;29;20032;-59
2023/03/02 08:29:20;;;;;;;11.82;6.45;;;;;;;;;;4894635;29;20033;-63
2023/03/02 08:31:46;;;;;;;11.90;6.53;;;;;;;;;;4894437;29;20049;-64
2023/03/02 08:34:12;;;;;;;13.52;6.60;;;;;;;;;;4894448;29;20025;-69
2023/03/02 08:36:39;;;;;;;12.05;6.13;;;;;;;;;;4894095;29;20078;-62
2023/03/02 08:39:06;;;;;;;12.10;5.68;;;;;;;;;;4892764;29;20016;-72
2023/03/02 08:41:33;;;;;;;12.80;6.55;;;;;;;;;;4894385;29;20393;-57
2023/03/02 08:43:59;;;;;;;11.35;5.82;;;;;;;;;;4896331;29;21277;-71
2023/03/02 08:46:25;;;;;;;12.38;6.60;;;;;;;;;;4896950;29;20043;-59
2023/03/02 08:48:51;;;;;;;10.40;5.70;;;;;;;;;;4895130;29;20117;-76
2023/03/02 08:51:18;;;;;;;12.60;5.95;;;;;;;;;;4894236;29;20041;-58
2023/03/02 08:53:53;;;;;;;11.82;5.88;;;;;;;;;;4892377;29;20029;-68
2023/03/02 08:56:24;;;;;;;15.38;7.20;;;;;;;;;;4907852;29;20053;-78
2023/03/02 08:58:54;;;;;;;11.18;5.70;;;;;;;;;;4909969;29;20024;-78
2023/03/02 09:01:25;;;;;;;13.45;6.75;;;;;;;;;;4907164;29;20061;-75
2023/03/02 09:03:53;;;;;;;16.77;7.78;;;;;;;;;;4909615;29;20016;-76
2023/03/02 09:06:20;;;;;;;15.55;8.30;;;;;;;;;;4910838;29;20048;-75
2023/03/02 09:08:47;;;;;;;15.07;7.55;;;;;;;;;;4878380;29;20329;-65
2023/03/02 09:11:13;;;;;;;15.73;6.60;;;;;;;;;;4891057;29;20040;-67
2023/03/02 09:13:39;;;;;;;16.30;7.00;;;;;;;;;;4894702;29;20111;-58
2023/03/02 09:16:07;;;;;;;15.70;7.75;;;;;;;;;;4891828;29;20040;-59
2023/03/02 09:18:33;;;;;;;13.82;6.78;;;;;;;;;;4892389;29;20024;-72
2023/03/02 09:20:59;;;;;;;14.07;7.22;;;;;;;;;;4889723;29;20036;-58
2023/03/02 09:23:26;;;;;;;13.68;7.88;;;;;;;;;;4892154;29;20040;-59
2023/03/02 09:25:52;;;;;;;12.52;7.90;;;;;;;;;;4892143;29;20032;-68
2023/03/02 09:28:20;;;;;;;14.90;8.15;;;;;;;;;;4891777;29;20072;-72
2023/03/02 09:30:50;;;;;;;15.32;8.63;;;;;;;;;;4893793;29;20040;-64
2023/03/02 09:33:16;;;;;;;13.77;8.18;;;;;;;;;;4891018;29;20033;-61
2023/03/02 09:35:42;;;;;;;17.73;8.85;;;;;;;;;;4894530;29;20115;-58
2023/03/02 09:38:11;;;;;;;13.43;8.48;;;;;;;;;;4891941;29;20473;-76
2023/03/02 09:40:42;;;;;;;16.83;10.27;;;;;;;;;;4890926;29;20129;-60
2023/03/02 09:43:17;;;;;;;16.60;9.02;;;;;;;;;;4895187;29;20035;-58
2023/03/02 09:45:49;;;;;;;14.43;8.98;;;;;;;;;;4895223;29;20048;-59
2023/03/02 09:48:21;;;;;;;19.40;11.23;;;;;;;;;;4895672;29;20524;-67
2023/03/02 09:51:10;;;;;;;19.20;10.20;;;;;;;;;;4893856;29;20181;-62
2023/03/02 09:53:45;;;;;;;18.52;9.35;;;;;;;;;;4896431;29;20029;-77
2023/03/02 09:56:14;;;;;;;17.90;10.40;;;;;;;;;;4876589;29;20052;-58
2023/03/02 09:58:41;;;;;;;15.88;9.70;;;;;;;;;;4876792;29;20037;-60
2023/03/02 10:01:13;;;;;;;18.40;10.13;;;;;;;;;;4887057;29;20029;-74
2023/03/02 10:03:52;;;;;;;16.05;9.45;;;;;;;;;;4895314;29;20032;-58
2023/03/02 10:06:18;;;;;;;16.35;9.65;;;;;;;;;;4892500;29;20032;-68
2023/03/02 10:08:44;;;;;;;17.13;9.82;;;;;;;;;;4893427;29;20048;-58
2023/03/02 10:11:22;;;;;;;18.95;10.35;;;;;;;;;;4897159;29;20037;-58
2023/03/02 10:14:10;;;;;;;17.52;10.25;;;;;;;;;;4894302;29;20024;-77
2023/03/02 10:16:59;;;;;;;19.60;10.82;;;;;;;;;;4895214;29;20079;-78
2023/03/02 10:19:45;;;;;;;19.30;10.10;;;;;;;;;;4800724;29;20043;-72
2023/03/02 10:22:11;;;;;;;19.83;11.15;;;;;;;;;;4810641;29;20562;-76
2023/03/02 10:24:49;;;;;;;21.60;11.02;;;;;;;;;;4819750;29;20161;-81
2023/03/02 10:27:16;;;;;;;21.55;11.30;;;;;;;;;;4820550;29;20038;-58
2023/03/02 10:29:55;;;;;;;17.40;10.30;;;;;;;;;;4822640;29;20109;-60
2023/03/02 10:32:21;;;;;;;16.20;9.18;;;;;;;;;;4822930;29;20046;-58
2023/03/02 10:34:48;;;;;;;16.48;9.73;;;;;;;;;;4822588;29;20038;-59
2023/03/02 10:37:16;;;;;;;15.73;9.15;;;;;;;;;;4810973;29;20050;-71
2023/03/02 10:39:43;;;;;;;17.52;8.95;;;;;;;;;;4804933;29;20507;-58
2023/03/02 10:42:15;;;;;;;19.52;10.70;;;;;;;;;;4813124;29;20038;-58
2023/03/02 10:44:44;;;;;;;17.63;9.30;;;;;;;;;;4822237;29;20054;-79
2023/03/02 10:47:24;;;;;;;15.48;8.38;;;;;;;;;;4822745;29;20084;-68
2023/03/02 10:49:51;;;;;;;13.13;8.40;;;;;;;;;;4822050;29;20070;-59
2023/03/02 10:52:21;;;;;;;15.02;8.43;;;;;;;;;;4821579;29;20073;-58
2023/03/02 10:54:47;;;;;;;16.63;8.70;;;;;;;;;;4808144;29;20035;-64
2023/03/02 10:57:29;;;;;;;13.45;8.10;;;;;;;;;;4883522;29;20067;-58
2023/03/02 11:00:00;;;;;;;14.85;8.23;;;;;;;;;;4898064;29;20572;-71
2023/03/02 11:02:28;;;;;;;13.95;7.75;;;;;;;;;;4898231;29;20139;-58
2023/03/02 11:04:58;;;;;;;15.48;8.25;;;;;;;;;;4897962;29;20085;-58
2023/03/02 11:07:28;;;;;;;12.13;6.97;;;;;;;;;;4897791;29;20115;-57
2023/03/02 11:09:57;;;;;;;12.10;7.30;;;;;;;;;;4897891;29;20127;-72
2023/03/02 11:12:23;;;;;;;11.85;6.85;;;;;;;;;;4909957;29;20464;-61
2023/03/02 11:15:00;;;;;;;19.10;8.38;;;;;;;;;;4917104;29;20115;-64
2023/03/02 11:17:33;;;;;;;11.90;6.75;;;;;;;;;;4903705;29;20112;-76
2023/03/02 11:20:00;;;;;;;11.60;6.75;;;;;;;;;;4896696;29;20033;-56
2023/03/02 11:22:39;;;;;;;10.65;6.97;;;;;;;;;;4896688;29;20077;-61
2023/03/02 11:25:07;;;;;;;9.95;5.90;;;;;;;;;;4894596;29;20029;-74
2023/03/02 11:27:34;;;;;;;11.23;6.40;;;;;;;;;;4896262;29;20410;-57
2023/03/02 11:30:04;;;;;;;12.05;7.10;;;;;;;;;;4896880;29;20043;-58
2023/03/02 11:32:39;;;;;;;17.20;8.05;;;;;;;;;;4897180;29;20085;-57
2023/03/02 11:35:34;;;;;;;14.65;7.45;;;;;;;;;;4896766;29;20024;-68
2023/03/02 11:38:04;;;;;;;11.80;7.10;;;;;;;;;;4852548;29;20050;-59
2023/03/02 11:40:42;;;;;;;10.68;6.50;;;;;;;;;;4846026;29;20037;-58
2023/03/02 11:43:09;;;;;;;11.73;6.70;;;;;;;;;;4846612;29;20925;-61
2023/03/02 11:45:38;;;;;;;12.00;6.78;;;;;;;;;;4849135;29;20053;-82
2023/03/02 11:48:07;;;;;;;10.77;7.05;;;;;;;;;;4839932;29;20049;-58
2023/03/02 11:50:36;;;;;;;11.02;6.63;;;;;;;;;;4840032;29;20050;-58
2023/03/02 11:53:07;;;;;;;10.52;6.10;;;;;;;;;;4842187;29;20041;-58
2023/03/02 11:55:37;;;;;;;11.15;5.80;;;;;;;;;;4846740;29;20129;-60
2023/03/02 11:58:04;;;;;;;12.32;7.53;;;;;;;;;;4843495;29;20500;-57
2023/03/02 12:00:30;;;;;;;9.52;5.32;;;;;;;;;;4846112;29;20040;-57
2023/03/02 12:03:22;;;;;;;12.32;6.70;;;;;;;;;;4848005;29;20033;-60
2023/03/02 12:05:51;;;;;;;12.75;6.70;;;;;;;;;;4821963;29;20050;-82
2023/03/02 12:08:19;;;;;;;11.98;7.07;;;;;;;;;;4849737;29;20034;-57
2023/03/02 12:11:00;;;;;;;13.02;6.55;;;;;;;;;;4850664;29;20045;-76
2023/03/02 12:13:26;;;;;;;11.60;6.80;;;;;;;;;;4864041;29;20045;-57
2023/03/02 12:15:55;;;;;;;10.13;6.38;;;;;;;;;;4901633;29;20036;-59
2023/03/02 12:18:21;;;;;;;11.85;6.40;;;;;;;;;;4897330;29;20055;-59
2023/03/02 12:21:05;;;;;;;9.55;5.25;;;;;;;;;;4899063;29;20039;-62
2023/03/02 12:23:32;;;;;;;12.75;5.50;;;;;;;;;;4894931;29;20036;-62
2023/03/02 12:26:06;;;;;;;12.85;6.55;;;;;;;;;;4895727;29;20033;-64
2023/03/02 12:28:34;;;;;;;13.27;7.88;;;;;;;;;;4896010;29;20059;-64
2023/03/02 12:31:12;;;;;;;9.00;5.65;;;;;;;;;;4903630;29;20033;-75
2023/03/02 12:33:48;;;;;;;9.10;5.40;;;;;;;;;;4893660;29;20043;-77
2023/03/02 12:36:20;;;;;;;7.75;4.85;;;;;;;;;;4896074;29;20108;-71
2023/03/02 12:38:53;;;;;;;11.02;5.63;;;;;;;;;;4903924;29;20028;-70
2023/03/02 12:41:34;;;;;;;9.80;5.35;;;;;;;;;;4920727;29;20544;-62
2023/03/02 12:44:16;;;;;;;9.20;5.43;;;;;;;;;;4908875;29;20041;-80
2023/03/02 12:46:46;;;;;;;8.43;5.32;;;;;;;;;;4878934;29;20116;-59
2023/03/02 12:49:26;;;;;;;9.75;5.05;;;;;;;;;;4887765;29;20408;-60
2023/03/02 12:51:54;;;;;;;8.95;5.05;;;;;;;;;;4896252;29;20408;-59
2023/03/02 12:54:24;;;;;;;8.18;4.57;;;;;;;;;;4885967;29;20061;-75
2023/03/02 12:57:01;;;;;;;10.90;5.93;;;;;;;;;;4882721;29;20184;-77
2023/03/02 12:59:28;;;;;;;7.40;4.70;;;;;;;;;;4878251;29;20025;-71
2023/03/02 13:02:14;;;;;;;10.27;5.25;;;;;;;;;;4884638;29;20098;-85
2023/03/02 13:04:40;;;;;;;10.13;5.50;;;;;;;;;;4883068;29;20493;-71
2023/03/02 13:07:06;;;;;;;13.88;7.00;;;;;;;;;;4880047;29;20444;-63
2023/03/02 13:09:32;;;;;;;12.40;6.78;;;;;;;;;;4883596;29;20063;-73
2023/03/02 13:11:58;;;;;;;13.77;6.90;;;;;;;;;;4891497;29;20036;-67
2023/03/02 13:14:26;;;;;;;13.65;5.95;;;;;;;;;;4896622;29;20036;-58
2023/03/02 13:17:01;;;;;;;12.60;6.50;;;;;;;;;;4893086;29;20757;-58
2023/03/02 13:19:29;;;;;;;9.95;5.68;;;;;;;;;;4858850;29;20054;-61
2023/03/02 13:21:55;;;;;;;13.15;6.20;;;;;;;;;;4874586;29;20035;-87
2023/03/02 13:24:24;;;;;;;11.48;6.25;;;;;;;;;;4883250;29;20044;-73
2023/03/02 13:26:55;;;;;;;9.15;5.25;;;;;;;;;;4877575;29;20549;-74
2023/03/02 13:29:25;;;;;;;9.52;5.10;;;;;;;;;;4880468;29;20029;-80
2023/03/02 13:31:51;;;;;;;9.07;5.70;;;;;;;;;;4864581;29;20097;-62
2023/03/02 13:34:25;;;;;;;10.73;6.35;;;;;;;;;;4886802;29;20028;-63
2023/03/02 13:36:51;;;;;;;8.38;5.50;;;;;;;;;;4896219;29;20037;-74
2023/03/02 13:39:20;;;;;;;12.02;6.32;;;;;;;;;;4896169;29;20024;-59
2023/03/02 13:41:53;;;;;;;10.90;6.00;;;;;;;;;;4879848;29;20096;-62
2023/03/02 13:44:23;;;;;;;11.40;6.53;;;;;;;;;;4884578;29;20493;-72
2023/03/02 13:46:49;;;;;;;11.13;6.90;;;;;;;;;;4895716;29;20044;-61
2023/03/02 13:49:24;;;;;;;9.88;6.05;;;;;;;;;;4895627;29;20504;-66
2023/03/02 13:51:56;;;;;;;10.20;5.20;;;;;;;;;;4895726;29;20411;-72
2023/03/02 13:54:25;;;;;;;13.27;7.55;;;;;;;;;;4895797;29;20029;-64
2023/03/02 13:56:55;;;;;;;15.25;7.32;;;;;;;;;;4895141;29;20108;-59
2023/03/02 13:59:21;;;;;;;15.15;8.20;;;;;;;;;;4892600;29;20370;-62
2023/03/02 14:01:48;;;;;;;11.38;6.53;;;;;;;;;;4895135;29;20401;-62
2023/03/02 14:04:17;;;;;;;11.38;6.70;;;;;;;;;;4895894;29;20035;-64
2023/03/02 14:06:46;;;;;;;17.17;9.57;;;;;;;;;;4895832;29;20028;-67
2023/03/02 14:09:13;;;;;;;12.80;6.78;;;;;;;;;;4894851;29;20247;-66
2023/03/02 14:11:44;;;;;;;13.02;7.38;;;;;;;;;;4895568;29;20068;-66
2023/03/02 14:14:17;;;;;;;13.40;7.93;;;;;;;;;;4895595;29;20040;-75
2023/03/02 14:16:43;;;;;;;17.15;8.60;;;;;;;;;;4895754;29;20044;-74
2023/03/02 14:19:10;;;;;;;15.13;8.80;;;;;;;;;;4896049;29;20076;-59
2023/03/02 14:21:36;;;;;;;17.27;9.38;;;;;;;;;;4914048;29;20036;-60
2023/03/02 14:24:02;;;;;;;14.23;8.57;;;;;;;;;;4914719;29;20115;-63
2023/03/02 14:26:45;;;;;;;13.88;8.15;;;;;;;;;;4914347;29;20103;-60
2023/03/02 14:29:27;;;;;;;14.30;8.15;;;;;;;;;;4914335;29;20039;-75
2023/03/02 14:31:54;;;;;;;17.60;10.05;;;;;;;;;;4896881;29;20091;-76
2023/03/02 14:34:21;;;;;;;18.80;9.57;;;;;;;;;;4914576;29;20365;-73
2023/03/02 14:36:48;;;;;;;17.55;10.10;;;;;;;;;;4914148;29;20117;-72
2023/03/02 14:39:20;;;;;;;19.58;10.80;;;;;;;;;;4914252;29;20040;-74
2023/03/02 14:41:46;;;;;;;18.40;10.75;;;;;;;;;;4913739;29;20440;-70
2023/03/02 14:44:13;;;;;;;19.38;11.15;;;;;;;;;;4913736;29;20056;-65
2023/03/02 14:46:39;;;;;;;17.58;10.32;;;;;;;;;;4914424;29;20174;-72
2023/03/02 14:49:05;;;;;;;22.75;12.38;;;;;;;;;;4914246;29;20066;-63
2023/03/02 14:51:32;;;;;;;21.08;11.75;;;;;;;;;;4913902;29;20123;-61
2023/03/02 14:53:59;;;;;;;21.77;12.70;;;;;;;;;;4913830;29;20072;-59
2023/03/02 14:56:25;;;;;;;22.05;13.00;;;;;;;;;;4914188;29;20028;-61
2023/03/02 14:58:52;;;;;;;23.33;13.93;;;;;;;;;;4913846;29;20028;-75
2023/03/02 15:01:18;;;;;;;22.17;13.00;;;;;;;;;;4913520;29;20480;-73
2023/03/02 15:03:44;;;;;;;24.73;13.90;;;;;;;;;;4913852;29;20029;-73
2023/03/02 15:06:31;;;;;;;24.02;13.82;;;;;;;;;;4913819;29;20115;-75
2023/03/02 15:08:58;;;;;;;23.90;13.52;;;;;;;;;;4913748;29;20051;-75
2023/03/02 15:11:24;;;;;;;24.42;13.43;;;;;;;;;;4913901;29;20502;-60
2023/03/02 15:13:50;;;;;;;25.50;15.00;;;;;;;;;;4914448;29;20040;-69
2023/03/02 15:16:16;;;;;;;28.13;15.00;;;;;;;;;;4917234;29;20044;-69
2023/03/02 15:18:43;;;;;;;24.80;14.48;;;;;;;;;;4917172;29;20124;-67
2023/03/02 15:21:14;;;;;;;24.13;14.00;;;;;;;;;;4917312;29;20028;-65
2023/03/02 15:23:40;;;;;;;25.27;15.18;;;;;;;;;;4916960;29;20555;-61
2023/03/02 15:26:06;;;;;;;30.70;16.13;;;;;;;;;;4917185;29;20036;-71
2023/03/02 15:28:32;;;;;;;28.80;16.00;;;;;;;;;;4916775;29;20036;-59
2023/03/02 15:31:05;;;;;;;26.83;15.55;;;;;;;;;;4915848;29;20421;-58
2023/03/02 15:33:31;;;;;;;26.23;15.60;;;;;;;;;;4917147;29;20028;-63
2023/03/02 15:35:58;;;;;;;28.88;15.93;;;;;;;;;;4916978;29;20082;-69
2023/03/02 15:38:24;;;;;;;30.58;17.13;;;;;;;;;;4916597;29;20464;-72
2023/03/02 15:40:50;;;;;;;28.42;16.08;;;;;;;;;;4917152;29;20361;-76
2023/03/02 15:43:16;;;;;;;31.20;17.75;;;;;;;;;;4916471;29;20065;-63
2023/03/02 15:45:46;;;;;;;33.38;18.23;;;;;;;;;;4916405;29;20071;-61
2023/03/02 15:48:12;;;;;;;35.22;18.83;;;;;;;;;;4916399;29;20028;-67
2023/03/02 15:50:38;;;;;;;30.17;17.60;;;;;;;;;;4916562;29;20035;-79
2023/03/02 15:53:04;;;;;;;30.05;16.45;;;;;;;;;;4916355;29;20024;-60
2023/03/02 15:55:30;;;;;;;33.78;18.30;;;;;;;;;;4916500;29;20032;-74
2023/03/02 15:57:58;;;;;;;35.20;18.58;;;;;;;;;;4916543;29;20058;-66
2023/03/02 16:00:25;;;;;;;35.75;19.10;;;;;;;;;;4916551;29;20164;-71
2023/03/02 16:02:51;;;;;;;33.20;18.83;;;;;;;;;;4916285;29;20032;-80
2023/03/02 16:05:17;;;;;;;34.55;17.60;;;;;;;;;;4916219;29;20067;-76
2023/03/02 16:07:43;;;;;;;35.58;19.10;;;;;;;;;;4916128;29;20042;-60
2023/03/02 16:10:14;;;;;;;31.05;16.33;;;;;;;;;;4916198;29;20047;-75
2023/03/02 16:12:40;;;;;;;28.25;15.82;;;;;;;;;;4916410;29;20040;-68
2023/03/02 16:15:07;;;;;;;27.70;15.30;;;;;;;;;;4916455;29;20084;-69
2023/03/02 16:17:33;;;;;;;28.98;16.10;;;;;;;;;;4916275;29;20051;-77
2023/03/02 16:19:59;;;;;;;25.67;15.38;;;;;;;;;;4916495;29;20029;-60
2023/03/02 16:22:25;;;;;;;28.38;16.92;;;;;;;;;;4916170;29;20627;-79
2023/03/02 16:24:51;;;;;;;29.35;16.80;;;;;;;;;;4916445;29;20028;-59
2023/03/02 16:27:17;;;;;;;27.80;16.27;;;;;;;;;;4916409;29;20032;-66
2023/03/02 16:29:43;;;;;;;33.22;18.15;;;;;;;;;;4916360;29;20032;-65
2023/03/02 16:32:09;;;;;;;36.55;18.95;;;;;;;;;;4897681;29;20048;-72
2023/03/02 16:34:35;;;;;;;35.22;19.75;;;;;;;;;;4915715;29;20028;-67
2023/03/02 16:37:01;;;;;;;35.22;19.42;;;;;;;;;;4915618;29;20084;-73
2023/03/02 16:39:27;;;;;;;39.08;20.25;;;;;;;;;;4915632;29;20020;-73
2023/03/02 16:41:53;;;;;;;35.55;19.45;;;;;;;;;;4901573;29;20032;-70
2023/03/02 16:44:19;;;;;;;37.72;20.45;;;;;;;;;;4896542;29;20052;-73
2023/03/02 16:46:45;;;;;;;37.08;19.85;;;;;;;;;;4896820;29;20393;-67
2023/03/02 16:49:12;;;;;;;39.67;20.02;;;;;;;;;;4896771;29;20375;-61
2023/03/02 16:51:38;;;;;;;36.03;20.08;;;;;;;;;;4896812;29;20036;-84
2023/03/02 16:54:04;;;;;;;37.25;20.75;;;;;;;;;;4896779;29;20029;-86
2023/03/02 16:56:30;;;;;;;41.63;21.27;;;;;;;;;;4897351;29;20032;-89
2023/03/02 16:58:56;;;;;;;43.00;21.75;;;;;;;;;;4897102;29;20029;-77
2023/03/02 17:01:23;;;;;;;43.83;21.77;;;;;;;;;;4897176;29;20047;-65
2023/03/02 17:03:49;;;;;;;43.53;22.85;;;;;;;;;;4896442;29;20080;-69
2023/03/02 17:06:17;;;;;;;44.15;22.42;;;;;;;;;;4885797;29;20036;-74
2023/03/02 17:08:43;;;;;;;40.65;21.23;;;;;;;;;;4881730;29;20085;-63
2023/03/02 17:11:09;;;;;;;41.08;20.83;;;;;;;;;;4878590;29;20068;-64
2023/03/02 17:13:35;;;;;;;48.72;24.13;;;;;;;;;;4877785;29;20025;-64
2023/03/02 17:16:01;;;;;;;44.75;22.58;;;;;;;;;;4883159;29;20116;-60
2023/03/02 17:18:28;;;;;;;41.97;21.88;;;;;;;;;;4894165;29;20072;-61
2023/03/02 17:20:55;;;;;;;41.05;21.58;;;;;;;;;;4896230;29;20032;-59
2023/03/02 17:23:22;;;;;;;39.65;21.13;;;;;;;;;;4896240;29;20028;-59
2023/03/02 17:25:48;;;;;;;43.00;22.13;;;;;;;;;;4896342;29;20051;-76
2023/03/02 17:28:14;;;;;;;37.90;20.15;;;;;;;;;;4895973;29;20217;-59
2023/03/02 17:30:40;;;;;;;42.50;19.80;;;;;;;;;;4896200;29;20044;-76
2023/03/02 17:33:07;;;;;;;39.53;20.33;;;;;;;;;;4896151;29;20103;-59
2023/03/02 17:35:33;;;;;;;37.25;20.48;;;;;;;;;;4895850;29;20040;-69
2023/03/02 17:37:59;;;;;;;40.28;21.65;;;;;;;;;;4895392;29;20028;-59
2023/03/02 17:40:25;;;;;;;44.05;22.63;;;;;;;;;;4896074;29;20055;-65
2023/03/02 17:42:51;;;;;;;37.38;20.52;;;;;;;;;;4895833;29;20037;-58
2023/03/02 17:45:22;;;;;;;44.42;23.60;;;;;;;;;;4895653;29;20052;-67
2023/03/02 17:47:49;;;;;;;48.72;25.02;;;;;;;;;;4895929;29;20024;-63
2023/03/02 17:50:15;;;;;;;47.17;25.33;;;;;;;;;;4895950;29;20069;-59
2023/03/02 17:52:42;;;;;;;43.92;23.27;;;;;;;;;;4895725;29;20036;-57
2023/03/02 17:55:09;;;;;;;47.10;24.90;;;;;;;;;;4895716;29;20036;-57
2023/03/02 17:57:35;;;;;;;45.10;24.45;;;;;;;;;;4895909;29;20037;-57
2023/03/02 18:00:03;;;;;;;42.40;22.98;;;;;;;;;;4895574;29;20021;-60
2023/03/02 18:02:29;;;;;;;46.42;23.63;;;;;;;;;;4895579;29;20397;-70
2023/03/02 18:04:55;;;;;;;40.58;22.05;;;;;;;;;;4895578;29;20035;-65
2023/03/02 18:07:21;;;;;;;44.83;22.10;;;;;;;;;;4895672;29;20085;-60
2023/03/02 18:09:47;;;;;;;40.05;21.23;;;;;;;;;;4895593;29;20462;-60
2023/03/02 18:12:13;;;;;;;44.65;22.15;;;;;;;;;;4895709;29;20084;-71
2023/03/02 18:14:39;;;;;;;43.40;22.25;;;;;;;;;;4895388;29;20041;-71
2023/03/02 18:17:08;;;;;;;44.00;23.95;;;;;;;;;;4895671;29;20043;-70
2023/03/02 18:19:34;;;;;;;43.95;23.52;;;;;;;;;;4895701;29;20107;-72
2023/03/02 18:22:00;;;;;;;43.70;23.35;;;;;;;;;;4895616;29;20488;-65
2023/03/02 18:24:26;;;;;;;44.03;22.90;;;;;;;;;;4895593;29;20032;-72
2023/03/02 18:26:52;;;;;;;44.28;23.75;;;;;;;;;;4895198;29;20024;-64
2023/03/02 18:29:18;;;;;;;43.60;22.60;;;;;;;;;;4895203;29;20549;-66
2023/03/02 18:31:44;;;;;;;44.78;23.55;;;;;;;;;;4895332;29;20446;-71
2023/03/02 18:34:10;;;;;;;46.58;23.38;;;;;;;;;;4895683;29;20025;-71
2023/03/02 18:36:36;;;;;;;49.80;25.73;;;;;;;;;;4895336;29;20041;-70
2023/03/02 18:39:02;;;;;;;48.70;25.85;;;;;;;;;;4895190;29;20028;-58
2023/03/02 18:41:31;;;;;;;51.83;26.00;;;;;;;;;;4895291;29;20088;-60
2023/03/02 18:43:58;;;;;;;54.88;25.20;;;;;;;;;;4895041;29;20060;-69
2023/03/02 18:46:26;;;;;;;49.75;25.33;;;;;;;;;;4895248;29;20060;-71
2023/03/02 18:48:52;;;;;;;51.45;26.52;;;;;;;;;;4896016;29;20073;-58
2023/03/02 18:51:19;;;;;;;50.38;25.20;;;;;;;;;;4903010;29;20405;-58
2023/03/02 18:53:46;;;;;;;52.92;25.98;;;;;;;;;;4917334;29;20032;-63
2023/03/02 18:56:12;;;;;;;53.72;27.73;;;;;;;;;;4917761;29;20489;-62
2023/03/02 18:58:38;;;;;;;55.22;28.38;;;;;;;;;;4917558;29;20084;-66
2023/03/02 19:01:05;;;;;;;52.38;29.13;;;;;;;;;;4917541;29;20123;-64
2023/03/02 19:03:31;;;;;;;58.58;28.42;;;;;;;;;;4917507;29;20032;-67
2023/03/02 19:05:57;;;;;;;54.33;28.58;;;;;;;;;;4917603;29;20175;-68
2023/03/02 19:08:24;;;;;;;55.13;27.77;;;;;;;;;;4917322;29;20036;-58
2023/03/02 19:10:51;;;;;;;55.65;28.52;;;;;;;;;;4917467;29;20035;-58
2023/03/02 19:13:17;;;;;;;52.95;28.10;;;;;;;;;;4917340;29;20028;-60
2023/03/02 19:15:43;;;;;;;56.90;27.65;;;;;;;;;;4917311;29;20028;-64
2023/03/02 19:18:19;;;;;;;52.55;28.10;;;;;;;;;;4916795;29;20488;-59
2023/03/02 19:20:46;;;;;;;53.53;28.00;;;;;;;;;;4917041;29;20111;-61
2023/03/02 19:23:12;;;;;;;55.15;28.10;;;;;;;;;;4916948;29;20032;-73
2023/03/02 19:25:38;;;;;;;51.75;27.77;;;;;;;;;;4917116;29;20075;-59
2023/03/02 19:28:05;;;;;;;53.42;27.85;;;;;;;;;;4916929;29;20380;-67
2023/03/02 19:30:32;;;;;;;50.53;26.60;;;;;;;;;;4916584;29;20130;-64
2023/03/02 19:33:00;;;;;;;52.65;28.13;;;;;;;;;;4917232;29;20024;-71
2023/03/02 19:35:27;;;;;;;56.13;28.33;;;;;;;;;;4916786;29;20028;-58
2023/03/02 19:37:53;;;;;;;54.22;28.30;;;;;;;;;;4916545;29;20102;-62
2023/03/02 19:40:20;;;;;;;55.75;27.55;;;;;;;;;;4916867;29;20051;-67
2023/03/02 19:42:46;;;;;;;53.63;27.75;;;;;;;;;;4916825;29;20036;-73
2023/03/02 19:45:17;;;;;;;52.22;27.35;;;;;;;;;;4916207;29;20059;-63
2023/03/02 19:47:44;;;;;;;51.85;28.52;;;;;;;;;;4916363;29;20036;-69
2023/03/02 19:50:10;;;;;;;56.10;27.65;;;;;;;;;;4916140;29;20488;-64
2023/03/02 19:52:37;;;;;;;53.10;27.05;;;;;;;;;;4916485;29;20032;-65
2023/03/02 19:55:03;;;;;;;53.90;27.40;;;;;;;;;;4916657;29;20036;-61
2023/03/02 19:57:30;;;;;;;53.03;26.70;;;;;;;;;;4916356;29;20115;-64
2023/03/02 19:59:56;;;;;;;57.88;30.27;;;;;;;;;;4915273;29;20139;-63
2023/03/02 20:02:23;;;;;;;53.65;27.77;;;;;;;;;;4916315;29;20064;-61
2023/03/02 20:04:50;;;;;;;48.47;26.40;;;;;;;;;;4916200;29;20536;-62
2023/03/02 20:07:18;;;;;;;53.03;27.23;;;;;;;;;;4916203;29;20036;-58
2023/03/02 20:09:44;;;;;;;51.03;26.52;;;;;;;;;;4899130;29;20063;-60
2023/03/02 20:12:10;;;;;;;51.08;26.67;;;;;;;;;;4915611;29;20044;-72
2023/03/02 20:14:39;;;;;;;63.03;28.75;;;;;;;;;;4916195;29;20028;-58